Current Conditions

Updated: 18-Jan-2018 9:32 PM  
Summary / Temperature Wind Rain






Feels like: 49°F

1-hour difference
1.3°F 1.3°F colder than last hour.

24-hour difference
4.2°F4.2°F colder than yesterday at this time.

  Today Yesterday
High: 72.7°F
1:03 PM
60.4°F
1:53 PM
Low: 48.5°F
9:26 PM
48.0°F
7:21 AM
Calm W
0.0
Gust:  0.0 mph
0 Beaufort - Calm

Today: 6.0 - 10:28 AM
Month: 11.5 mph - Jan 10
Rain Today: 0.00 in
Current Rate (/hr): 0.000 in
Max Rate (/hr):
Rain Yesterday: 0.01 in
Storm Rain: 0.00 in
This Month: 0.81 in
Season Total: 1.55 in
Last Rain Event: 1 day ago
Humidity / Barometer Sun / Moon
Humidity: 95 Increased 2.0% in the last hour.
Dew Point: 47.1°F Decreased 0.8°F in the last hour.
Barometer: 30.031 inHg  
Baro Trend: Steady
Sunrise: 7:05 AM
Sunset: 5:08 PM
Moonrise: 8:43 AM
Moonset: 6:47 PM
Sky Conditions UV Index
Summary: Mist, Clear
Visibility: 1 ½ miles
Clouds: None
KVIS - 9:10 PM PST
Current: 0.0  None 
Friday: 2.3  Low 
Saturday: 1.8  Low 
Air Quality Fire Danger
 Moderate 
Ozone 4 ppb
PM 2.5 33 μg/m3
9:30 PM PST
Current: 0  Low 

Local Alerts Local Forecast
Local NWS Alerts
Tonight

Chance of
Rain
Low 45
Fri

Rain
Showers
High 56
Fri night

Rain
Showers
Low 33
Sat

Partly
Cloudy
High 53
Sat night

Partly
Cloudy
Low 29
Sun

Partly
Cloudy
High 56
Sun night

Rain
Showers
Low 34

Local Radar Local Satellite Neighborhood Cam Sky Cam
Local Radar Local Satellite Neighborhood Cam Sky Cam


Nearby Personal Stations

Weather Underground PWS KCAEXETE7     Weather Underground PWS KCAEXETE6     Weather Underground PWS KCAEXETE11

Nearby Airport Stations

KVIS - Visalia, California, USA
Distance from station: W 14mi, 23km
Updated: Thu, 18-Jan-2018 9:10pm PST
Mist, Clear
Mist, Clear
 Wind from E
Wind: E 5 mph , 7 km/h
Temperature: 46°F , 8°C
Wind Chill: 44°F , 7°C
Dew Point: 46°F , 8°C
Humidity: 100%
Barometer: 30.04 inHg , 1017.3 hPa
Summary: Mist
Clouds: Clear
Visibility: 1 1/2 miles , 2 km
2018/01/19 05:10 KVIS 190510Z AUTO 09004KT 1 1/2SM BR CLR 08/08 A3004 RMK AO2
KPTV - Porterville, California, USA
Distance from station: SSE 19mi, 31km
Updated: Thu, 18-Jan-2018 9:22pm PST
Mist, Clear
Mist, Clear
 Wind from calm
Wind: Calm
Temperature: 48°F , 9°C
Dew Point: 48°F , 9°C
Humidity: 100%
Barometer: 30.04 inHg , 1017.3 hPa
Summary: Mist
Clouds: Clear
Visibility: 1 1/4 miles , 2 km
2018/01/19 05:22 KPTV 190522Z AUTO 00000KT 1 1/4SM BR CLR 09/09 A3004 RMK AO2

Metar display script from Saratoga-Weather.org



Visitor Map